Huvudsida
METAR-TAF:

METAR-TAF

Flygplatser :

Catania-Fontanarossas flygplats

Catania, Italien

latitud: 37-28N, longitud: 015-03E, höjd: 11 m

Aktuellt väderrapport

Denna rapport gjordes för 16 minuter sedan, klockan 05:50 UTC
Vind 4 kt från väst/sydväst, varierande mellan syd och väst
Temperatur 8°C
Fuktighet 93%
Tryck 1014 hPa
Sikt 10 km eller mer
Inga moln under 1 500 m eller inga cumulonimbus

METAR: LICC 050550Z 24004KT 190V270 CAVOK 08/07 Q1014

Tid: 08:06 (06:06 UTC)

Väderprognos

Denna rapport gjordes för 13 timmar och 6 minuter sedan, klockan 17:00 UTC
Prognos gäller från 04 kl. 18 UTC till 05 kl. 18 UTC
Vind 4 kt varierande vindriktning
Sikt 10 km eller mer
Spridda moln på en höjd av 4000 ft
Blir
från 05 kl. 08 UTC till 05 kl. 10 UTC
Vind 10 kt från ost/nordost
Blir
från 05 kl. 16 UTC till 05 kl. 18 UTC
Vind 5 kt varierande vindriktning

TAF: LICC 041700Z 0418/0518 VRB04KT 9999 SCT040 BECMG 0508/0510 07010KT BECMG 0516/0518 VRB05KT

Aktuella väderrapporter och prognoser från 4000 flygplatser (METAR- och TAF-rapporter).

De tillgängliga stationerna syns som gula och röda prickar på kartan.

För musen över prickarna för att se namnen på stationerna.

Klicka sedan för att få väderrapporter och prognoser.

För att ändra kartan: Klicka på de gröna knapparna med ett svart kors på för att zooma in; den gröna knappen med ett streck på för att zooma ut; eller på de gröna pilarna för angränsande kartor.


METAR-TAF: